sensor_id;sensor_type;location;lat;lon;timestamp;P1;durP1;ratioP1;P2;durP2;ratioP2
64598;SDS011;51008;51.504;11.548;2022-12-18T00:03:14;33.53;;;12.10;;
64598;SDS011;51008;51.504;11.548;2022-12-18T00:08:16;27.20;;;11.50;;
64598;SDS011;51008;51.504;11.548;2022-12-18T00:13:17;25.17;;;10.83;;
64598;SDS011;51008;51.504;11.548;2022-12-18T00:18:18;41.00;;;16.67;;
64598;SDS011;51008;51.504;11.548;2022-12-18T00:23:19;46.33;;;18.80;;
64598;SDS011;51008;51.504;11.548;2022-12-18T00:28:20;50.27;;;19.97;;
64598;SDS011;51008;51.504;11.548;2022-12-18T00:33:21;42.17;;;18.33;;
64598;SDS011;51008;51.504;11.548;2022-12-18T00:38:22;40.53;;;18.57;;
64598;SDS011;51008;51.504;11.548;2022-12-18T00:43:24;38.40;;;16.07;;
64598;SDS011;51008;51.504;11.548;2022-12-18T00:48:27;32.87;;;15.77;;
64598;SDS011;51008;51.504;11.548;2022-12-18T00:53:28;36.13;;;16.27;;
64598;SDS011;51008;51.504;11.548;2022-12-18T00:58:30;32.17;;;13.73;;
64598;SDS011;51008;51.504;11.548;2022-12-18T01:03:31;35.23;;;13.77;;
64598;SDS011;51008;51.504;11.548;2022-12-18T01:08:32;34.10;;;15.57;;
64598;SDS011;51008;51.504;11.548;2022-12-18T01:13:33;31.07;;;12.57;;
64598;SDS011;51008;51.504;11.548;2022-12-18T01:18:35;27.93;;;11.50;;
64598;SDS011;51008;51.504;11.548;2022-12-18T01:23:36;26.50;;;11.53;;
64598;SDS011;51008;51.504;11.548;2022-12-18T01:28:38;24.70;;;10.10;;
64598;SDS011;51008;51.504;11.548;2022-12-18T01:33:40;30.57;;;11.40;;
64598;SDS011;51008;51.504;11.548;2022-12-18T01:38:41;27.50;;;10.80;;
64598;SDS011;51008;51.504;11.548;2022-12-18T01:43:43;22.87;;;10.97;;
64598;SDS011;51008;51.504;11.548;2022-12-18T01:48:46;32.43;;;12.50;;
64598;SDS011;51008;51.504;11.548;2022-12-18T02:09:20;34.73;;;14.70;;
64598;SDS011;51008;51.504;11.548;2022-12-18T02:20:02;39.10;;;15.00;;
64598;SDS011;51008;51.504;11.548;2022-12-18T02:30:55;38.47;;;14.13;;
64598;SDS011;51008;51.504;11.548;2022-12-18T02:35:57;35.10;;;16.13;;
64598;SDS011;51008;51.504;11.548;2022-12-18T02:41:02;35.65;;;12.48;;
64598;SDS011;51008;51.504;11.548;2022-12-18T02:46:25;25.63;;;11.77;;
64598;SDS011;51008;51.504;11.548;2022-12-18T02:51:52;32.90;;;13.23;;
64598;SDS011;51008;51.504;11.548;2022-12-18T02:56:57;29.07;;;12.60;;
64598;SDS011;51008;51.504;11.548;2022-12-18T03:07:20;22.07;;;9.93;;
64598;SDS011;51008;51.504;11.548;2022-12-18T03:17:36;31.03;;;12.20;;
64598;SDS011;51008;51.504;11.548;2022-12-18T03:22:42;28.83;;;11.90;;
64598;SDS011;51008;51.504;11.548;2022-12-18T03:27:49;22.57;;;10.57;;
64598;SDS011;51008;51.504;11.548;2022-12-18T03:38:06;27.10;;;11.77;;
64598;SDS011;51008;51.504;11.548;2022-12-18T03:43:11;24.35;;;11.48;;
64598;SDS011;51008;51.504;11.548;2022-12-18T03:48:31;26.70;;;12.80;;
64598;SDS011;51008;51.504;11.548;2022-12-18T03:53:46;34.67;;;14.27;;
64598;SDS011;51008;51.504;11.548;2022-12-18T03:58:55;25.97;;;13.23;;
64598;SDS011;51008;51.504;11.548;2022-12-18T04:04:01;30.47;;;14.33;;
64598;SDS011;51008;51.504;11.548;2022-12-18T04:09:07;32.63;;;13.07;;
64598;SDS011;51008;51.504;11.548;2022-12-18T04:14:14;28.40;;;11.37;;
64598;SDS011;51008;51.504;11.548;2022-12-18T04:19:15;31.77;;;13.07;;
64598;SDS011;51008;51.504;11.548;2022-12-18T04:24:18;29.23;;;12.60;;
64598;SDS011;51008;51.504;11.548;2022-12-18T04:29:29;25.67;;;11.03;;
64598;SDS011;51008;51.504;11.548;2022-12-18T04:34:30;30.37;;;13.23;;
64598;SDS011;51008;51.504;11.548;2022-12-18T04:39:32;33.30;;;12.93;;
64598;SDS011;51008;51.504;11.548;2022-12-18T04:44:38;26.93;;;11.83;;
64598;SDS011;51008;51.504;11.548;2022-12-18T04:49:39;23.97;;;12.00;;
64598;SDS011;51008;51.504;11.548;2022-12-18T04:54:40;25.67;;;12.37;;
64598;SDS011;51008;51.504;11.548;2022-12-18T04:59:41;26.57;;;12.80;;
64598;SDS011;51008;51.504;11.548;2022-12-18T05:04:42;30.37;;;13.10;;
64598;SDS011;51008;51.504;11.548;2022-12-18T05:09:43;32.30;;;13.77;;
64598;SDS011;51008;51.504;11.548;2022-12-18T05:14:44;24.90;;;11.47;;
64598;SDS011;51008;51.504;11.548;2022-12-18T05:19:45;21.90;;;11.37;;
64598;SDS011;51008;51.504;11.548;2022-12-18T05:24:46;23.70;;;11.03;;
64598;SDS011;51008;51.504;11.548;2022-12-18T05:29:47;23.60;;;11.03;;
64598;SDS011;51008;51.504;11.548;2022-12-18T05:34:48;26.63;;;11.57;;
64598;SDS011;51008;51.504;11.548;2022-12-18T05:39:49;27.27;;;12.47;;
64598;SDS011;51008;51.504;11.548;2022-12-18T05:44:50;28.43;;;12.83;;
64598;SDS011;51008;51.504;11.548;2022-12-18T05:49:51;23.83;;;10.20;;
64598;SDS011;51008;51.504;11.548;2022-12-18T05:54:51;22.70;;;10.07;;
64598;SDS011;51008;51.504;11.548;2022-12-18T05:59:53;24.03;;;9.87;;
64598;SDS011;51008;51.504;11.548;2022-12-18T06:04:54;20.17;;;9.73;;
64598;SDS011;51008;51.504;11.548;2022-12-18T06:09:55;23.77;;;10.17;;
64598;SDS011;51008;51.504;11.548;2022-12-18T06:14:56;18.67;;;8.83;;
64598;SDS011;51008;51.504;11.548;2022-12-18T06:19:57;18.73;;;9.47;;
64598;SDS011;51008;51.504;11.548;2022-12-18T06:24:58;21.17;;;10.27;;
64598;SDS011;51008;51.504;11.548;2022-12-18T06:29:59;17.40;;;9.37;;
64598;SDS011;51008;51.504;11.548;2022-12-18T06:35:00;17.37;;;10.57;;
64598;SDS011;51008;51.504;11.548;2022-12-18T06:40:02;16.43;;;8.83;;
64598;SDS011;51008;51.504;11.548;2022-12-18T06:45:03;20.27;;;8.60;;
64598;SDS011;51008;51.504;11.548;2022-12-18T06:50:04;25.50;;;10.10;;
64598;SDS011;51008;51.504;11.548;2022-12-18T06:55:09;24.53;;;10.07;;
64598;SDS011;51008;51.504;11.548;2022-12-18T07:00:10;23.83;;;10.00;;
64598;SDS011;51008;51.504;11.548;2022-12-18T07:05:12;20.63;;;9.60;;
64598;SDS011;51008;51.504;11.548;2022-12-18T07:10:13;21.30;;;9.87;;
64598;SDS011;51008;51.504;11.548;2022-12-18T07:15:14;17.93;;;8.53;;
64598;SDS011;51008;51.504;11.548;2022-12-18T07:20:15;21.43;;;9.23;;
64598;SDS011;51008;51.504;11.548;2022-12-18T07:25:16;19.90;;;9.57;;
64598;SDS011;51008;51.504;11.548;2022-12-18T07:30:17;26.17;;;9.90;;
64598;SDS011;51008;51.504;11.548;2022-12-18T07:35:18;19.20;;;9.63;;
64598;SDS011;51008;51.504;11.548;2022-12-18T07:40:19;23.00;;;10.80;;
64598;SDS011;51008;51.504;11.548;2022-12-18T07:45:20;22.60;;;10.73;;
64598;SDS011;51008;51.504;11.548;2022-12-18T07:50:21;19.97;;;10.50;;
64598;SDS011;51008;51.504;11.548;2022-12-18T07:55:22;18.43;;;9.23;;
64598;SDS011;51008;51.504;11.548;2022-12-18T08:00:23;19.47;;;9.93;;
64598;SDS011;51008;51.504;11.548;2022-12-18T08:05:23;19.37;;;9.57;;
64598;SDS011;51008;51.504;11.548;2022-12-18T08:10:24;24.13;;;11.77;;
64598;SDS011;51008;51.504;11.548;2022-12-18T08:15:25;23.00;;;9.97;;
64598;SDS011;51008;51.504;11.548;2022-12-18T08:20:29;19.83;;;10.23;;
64598;SDS011;51008;51.504;11.548;2022-12-18T08:25:30;15.65;;;9.07;;
64598;SDS011;51008;51.504;11.548;2022-12-18T08:30:31;16.43;;;10.07;;
64598;SDS011;51008;51.504;11.548;2022-12-18T08:35:35;21.37;;;11.27;;
64598;SDS011;51008;51.504;11.548;2022-12-18T08:40:37;28.67;;;12.88;;
64598;SDS011;51008;51.504;11.548;2022-12-18T08:45:38;26.13;;;12.67;;
64598;SDS011;51008;51.504;11.548;2022-12-18T08:50:39;22.93;;;11.23;;
64598;SDS011;51008;51.504;11.548;2022-12-18T08:55:40;25.20;;;12.47;;
64598;SDS011;51008;51.504;11.548;2022-12-18T09:00:40;25.10;;;12.70;;
64598;SDS011;51008;51.504;11.548;2022-12-18T09:05:42;28.53;;;14.43;;
64598;SDS011;51008;51.504;11.548;2022-12-18T09:10:46;26.87;;;14.37;;
64598;SDS011;51008;51.504;11.548;2022-12-18T09:15:49;26.93;;;15.07;;
64598;SDS011;51008;51.504;11.548;2022-12-18T09:25:58;25.57;;;13.50;;
64598;SDS011;51008;51.504;11.548;2022-12-18T09:31:03;25.60;;;12.47;;
64598;SDS011;51008;51.504;11.548;2022-12-18T09:36:06;24.67;;;13.40;;
64598;SDS011;51008;51.504;11.548;2022-12-18T09:46:38;34.57;;;18.20;;
64598;SDS011;51008;51.504;11.548;2022-12-18T09:51:52;40.90;;;19.47;;
64598;SDS011;51008;51.504;11.548;2022-12-18T09:56:58;37.87;;;18.03;;
64598;SDS011;51008;51.504;11.548;2022-12-18T10:01:59;28.30;;;14.83;;
64598;SDS011;51008;51.504;11.548;2022-12-18T10:07:05;34.97;;;16.67;;
64598;SDS011;51008;51.504;11.548;2022-12-18T10:12:26;32.77;;;16.03;;
64598;SDS011;51008;51.504;11.548;2022-12-18T10:28:31;31.37;;;14.87;;
64598;SDS011;51008;51.504;11.548;2022-12-18T10:33:34;30.20;;;14.80;;
64598;SDS011;51008;51.504;11.548;2022-12-18T10:38:35;34.33;;;15.37;;
64598;SDS011;51008;51.504;11.548;2022-12-18T10:43:39;32.67;;;15.27;;
64598;SDS011;51008;51.504;11.548;2022-12-18T10:53:51;31.77;;;15.83;;
64598;SDS011;51008;51.504;11.548;2022-12-18T10:58:57;37.83;;;16.57;;
64598;SDS011;51008;51.504;11.548;2022-12-18T11:03:59;37.43;;;18.63;;
64598;SDS011;51008;51.504;11.548;2022-12-18T11:09:03;43.35;;;19.02;;
64598;SDS011;51008;51.504;11.548;2022-12-18T11:14:13;40.20;;;18.57;;
64598;SDS011;51008;51.504;11.548;2022-12-18T11:24:35;36.70;;;18.10;;
64598;SDS011;51008;51.504;11.548;2022-12-18T11:29:37;39.37;;;17.37;;
64598;SDS011;51008;51.504;11.548;2022-12-18T11:34:45;41.67;;;17.73;;
64598;SDS011;51008;51.504;11.548;2022-12-18T11:39:59;35.80;;;16.77;;
64598;SDS011;51008;51.504;11.548;2022-12-18T11:50:56;41.97;;;19.33;;
64598;SDS011;51008;51.504;11.548;2022-12-18T11:55:47;41.17;;;18.33;;
64598;SDS011;51008;51.504;11.548;2022-12-18T12:16:30;47.07;;;20.60;;
64598;SDS011;51008;51.504;11.548;2022-12-18T12:21:40;46.80;;;21.30;;
64598;SDS011;51008;51.504;11.548;2022-12-18T12:42:47;45.87;;;21.10;;
64598;SDS011;51008;51.504;11.548;2022-12-18T12:47:52;44.03;;;19.97;;
64598;SDS011;51008;51.504;11.548;2022-12-18T12:52:55;49.07;;;22.10;;
64598;SDS011;51008;51.504;11.548;2022-12-18T12:58:08;50.53;;;21.93;;
64598;SDS011;51008;51.504;11.548;2022-12-18T13:03:27;46.33;;;21.07;;
64598;SDS011;51008;51.504;11.548;2022-12-18T13:08:51;49.63;;;21.53;;
64598;SDS011;51008;51.504;11.548;2022-12-18T13:14:00;49.43;;;21.47;;
64598;SDS011;51008;51.504;11.548;2022-12-18T13:19:01;48.67;;;21.10;;
64598;SDS011;51008;51.504;11.548;2022-12-18T13:29:43;51.57;;;21.53;;
64598;SDS011;51008;51.504;11.548;2022-12-18T13:34:45;46.10;;;21.80;;
64598;SDS011;51008;51.504;11.548;2022-12-18T13:39:46;50.80;;;21.73;;
64598;SDS011;51008;51.504;11.548;2022-12-18T13:44:47;41.07;;;19.07;;
64598;SDS011;51008;51.504;11.548;2022-12-18T13:49:48;46.10;;;20.60;;
64598;SDS011;51008;51.504;11.548;2022-12-18T13:54:58;51.33;;;20.80;;
64598;SDS011;51008;51.504;11.548;2022-12-18T14:00:23;48.40;;;20.77;;
64598;SDS011;51008;51.504;11.548;2022-12-18T14:05:34;47.87;;;20.33;;
64598;SDS011;51008;51.504;11.548;2022-12-18T14:10:43;50.43;;;19.90;;
64598;SDS011;51008;51.504;11.548;2022-12-18T14:15:46;50.13;;;21.67;;
64598;SDS011;51008;51.504;11.548;2022-12-18T14:20:53;49.60;;;20.33;;
64598;SDS011;51008;51.504;11.548;2022-12-18T14:25:57;50.03;;;20.27;;
64598;SDS011;51008;51.504;11.548;2022-12-18T14:30:58;56.60;;;20.70;;
64598;SDS011;51008;51.504;11.548;2022-12-18T14:36:00;61.57;;;24.90;;
64598;SDS011;51008;51.504;11.548;2022-12-18T14:41:04;53.00;;;22.43;;
64598;SDS011;51008;51.504;11.548;2022-12-18T14:51:31;55.87;;;21.83;;
64598;SDS011;51008;51.504;11.548;2022-12-18T14:56:34;51.27;;;20.70;;
64598;SDS011;51008;51.504;11.548;2022-12-18T15:01:37;55.83;;;22.03;;
64598;SDS011;51008;51.504;11.548;2022-12-18T15:06:45;43.67;;;20.67;;
64598;SDS011;51008;51.504;11.548;2022-12-18T15:11:46;56.13;;;22.90;;
64598;SDS011;51008;51.504;11.548;2022-12-18T15:16:54;57.50;;;23.07;;
64598;SDS011;51008;51.504;11.548;2022-12-18T15:21:57;43.57;;;20.37;;
64598;SDS011;51008;51.504;11.548;2022-12-18T15:26:58;56.93;;;22.50;;
64598;SDS011;51008;51.504;11.548;2022-12-18T15:32:01;44.03;;;20.40;;
64598;SDS011;51008;51.504;11.548;2022-12-18T15:37:16;49.77;;;18.60;;
64598;SDS011;51008;51.504;11.548;2022-12-18T15:42:17;34.03;;;17.03;;
64598;SDS011;51008;51.504;11.548;2022-12-18T15:47:18;34.07;;;16.50;;
64598;SDS011;51008;51.504;11.548;2022-12-18T15:52:19;41.20;;;17.00;;
64598;SDS011;51008;51.504;11.548;2022-12-18T15:57:20;44.63;;;17.00;;
64598;SDS011;51008;51.504;11.548;2022-12-18T16:02:22;30.80;;;14.50;;
64598;SDS011;51008;51.504;11.548;2022-12-18T16:07:23;33.20;;;16.40;;
64598;SDS011;51008;51.504;11.548;2022-12-18T16:12:24;37.53;;;16.73;;
64598;SDS011;51008;51.504;11.548;2022-12-18T16:17:25;34.97;;;15.67;;
64598;SDS011;51008;51.504;11.548;2022-12-18T16:22:28;35.33;;;16.10;;
64598;SDS011;51008;51.504;11.548;2022-12-18T16:27:31;40.92;;;16.00;;
64598;SDS011;51008;51.504;11.548;2022-12-18T16:32:34;34.13;;;16.23;;
64598;SDS011;51008;51.504;11.548;2022-12-18T16:37:35;43.27;;;17.27;;
64598;SDS011;51008;51.504;11.548;2022-12-18T16:42:37;46.37;;;18.40;;
64598;SDS011;51008;51.504;11.548;2022-12-18T16:47:39;48.73;;;19.27;;
64598;SDS011;51008;51.504;11.548;2022-12-18T16:52:40;38.27;;;17.70;;
64598;SDS011;51008;51.504;11.548;2022-12-18T16:57:41;39.33;;;18.50;;
64598;SDS011;51008;51.504;11.548;2022-12-18T17:02:42;38.70;;;17.87;;
64598;SDS011;51008;51.504;11.548;2022-12-18T17:07:43;41.37;;;19.30;;
64598;SDS011;51008;51.504;11.548;2022-12-18T17:12:44;40.47;;;18.20;;
64598;SDS011;51008;51.504;11.548;2022-12-18T17:17:45;43.27;;;17.40;;
64598;SDS011;51008;51.504;11.548;2022-12-18T17:22:46;43.63;;;17.97;;
64598;SDS011;51008;51.504;11.548;2022-12-18T17:27:49;42.90;;;20.00;;
64598;SDS011;51008;51.504;11.548;2022-12-18T17:32:50;53.80;;;22.00;;
64598;SDS011;51008;51.504;11.548;2022-12-18T17:37:51;46.77;;;20.97;;
64598;SDS011;51008;51.504;11.548;2022-12-18T17:42:52;45.13;;;21.23;;
64598;SDS011;51008;51.504;11.548;2022-12-18T17:47:53;51.23;;;21.27;;
64598;SDS011;51008;51.504;11.548;2022-12-18T17:52:55;46.17;;;20.87;;
64598;SDS011;51008;51.504;11.548;2022-12-18T17:57:56;44.90;;;21.33;;
64598;SDS011;51008;51.504;11.548;2022-12-18T18:03:00;54.93;;;24.03;;
64598;SDS011;51008;51.504;11.548;2022-12-18T18:08:01;52.43;;;24.57;;
64598;SDS011;51008;51.504;11.548;2022-12-18T18:13:03;49.10;;;22.53;;
64598;SDS011;51008;51.504;11.548;2022-12-18T18:18:04;55.33;;;22.30;;
64598;SDS011;51008;51.504;11.548;2022-12-18T18:23:05;44.20;;;22.73;;
64598;SDS011;51008;51.504;11.548;2022-12-18T18:28:06;47.43;;;23.87;;
64598;SDS011;51008;51.504;11.548;2022-12-18T18:33:07;48.30;;;23.33;;
64598;SDS011;51008;51.504;11.548;2022-12-18T18:38:08;48.17;;;23.47;;
64598;SDS011;51008;51.504;11.548;2022-12-18T18:43:09;49.87;;;24.03;;
64598;SDS011;51008;51.504;11.548;2022-12-18T18:48:10;49.17;;;23.47;;
64598;SDS011;51008;51.504;11.548;2022-12-18T18:53:11;49.40;;;23.53;;
64598;SDS011;51008;51.504;11.548;2022-12-18T18:58:12;52.90;;;24.57;;
64598;SDS011;51008;51.504;11.548;2022-12-18T19:03:14;44.87;;;24.20;;
64598;SDS011;51008;51.504;11.548;2022-12-18T19:08:15;50.97;;;24.13;;
64598;SDS011;51008;51.504;11.548;2022-12-18T19:13:16;50.93;;;23.00;;
64598;SDS011;51008;51.504;11.548;2022-12-18T19:18:17;45.60;;;22.40;;
64598;SDS011;51008;51.504;11.548;2022-12-18T19:23:18;46.93;;;23.13;;
64598;SDS011;51008;51.504;11.548;2022-12-18T19:28:20;48.50;;;23.00;;
64598;SDS011;51008;51.504;11.548;2022-12-18T19:33:22;52.60;;;22.53;;
64598;SDS011;51008;51.504;11.548;2022-12-18T19:38:23;48.93;;;23.10;;
64598;SDS011;51008;51.504;11.548;2022-12-18T19:43:24;57.47;;;23.77;;
64598;SDS011;51008;51.504;11.548;2022-12-18T19:48:25;52.73;;;24.43;;
64598;SDS011;51008;51.504;11.548;2022-12-18T19:53:26;54.07;;;25.00;;
64598;SDS011;51008;51.504;11.548;2022-12-18T19:58:27;56.30;;;24.70;;
64598;SDS011;51008;51.504;11.548;2022-12-18T20:03:28;49.93;;;23.83;;
64598;SDS011;51008;51.504;11.548;2022-12-18T20:08:29;47.27;;;23.37;;
64598;SDS011;51008;51.504;11.548;2022-12-18T20:13:30;44.23;;;23.07;;
64598;SDS011;51008;51.504;11.548;2022-12-18T20:18:31;53.63;;;22.00;;
64598;SDS011;51008;51.504;11.548;2022-12-18T20:23:32;48.60;;;21.70;;
64598;SDS011;51008;51.504;11.548;2022-12-18T20:28:33;49.70;;;21.50;;
64598;SDS011;51008;51.504;11.548;2022-12-18T20:33:34;42.13;;;20.03;;
64598;SDS011;51008;51.504;11.548;2022-12-18T20:38:35;44.10;;;21.13;;
64598;SDS011;51008;51.504;11.548;2022-12-18T20:43:37;50.73;;;22.33;;
64598;SDS011;51008;51.504;11.548;2022-12-18T20:48:39;45.73;;;21.63;;
64598;SDS011;51008;51.504;11.548;2022-12-18T20:53:41;40.10;;;21.00;;
64598;SDS011;51008;51.504;11.548;2022-12-18T20:58:42;49.37;;;20.83;;
64598;SDS011;51008;51.504;11.548;2022-12-18T21:03:44;47.43;;;22.83;;
64598;SDS011;51008;51.504;11.548;2022-12-18T21:08:46;46.97;;;23.47;;
64598;SDS011;51008;51.504;11.548;2022-12-18T21:13:47;49.17;;;23.33;;
64598;SDS011;51008;51.504;11.548;2022-12-18T21:18:48;53.70;;;25.17;;
64598;SDS011;51008;51.504;11.548;2022-12-18T21:23:49;53.80;;;22.50;;
64598;SDS011;51008;51.504;11.548;2022-12-18T21:28:57;49.87;;;21.40;;
64598;SDS011;51008;51.504;11.548;2022-12-18T21:34:00;41.80;;;19.90;;
64598;SDS011;51008;51.504;11.548;2022-12-18T21:39:02;43.27;;;18.90;;
64598;SDS011;51008;51.504;11.548;2022-12-18T21:44:03;41.23;;;17.77;;
64598;SDS011;51008;51.504;11.548;2022-12-18T21:49:04;43.27;;;20.10;;
64598;SDS011;51008;51.504;11.548;2022-12-18T21:54:06;41.80;;;18.77;;
64598;SDS011;51008;51.504;11.548;2022-12-18T21:59:07;47.77;;;19.40;;
64598;SDS011;51008;51.504;11.548;2022-12-18T22:04:09;41.07;;;17.70;;
64598;SDS011;51008;51.504;11.548;2022-12-18T22:09:12;36.13;;;17.20;;
64598;SDS011;51008;51.504;11.548;2022-12-18T22:14:14;37.33;;;16.83;;
64598;SDS011;51008;51.504;11.548;2022-12-18T22:19:21;37.10;;;17.00;;
64598;SDS011;51008;51.504;11.548;2022-12-18T22:24:24;36.80;;;17.30;;
64598;SDS011;51008;51.504;11.548;2022-12-18T22:29:26;38.07;;;18.17;;
64598;SDS011;51008;51.504;11.548;2022-12-18T22:34:27;41.00;;;18.77;;
64598;SDS011;51008;51.504;11.548;2022-12-18T22:39:28;48.60;;;19.67;;
64598;SDS011;51008;51.504;11.548;2022-12-18T22:44:29;46.77;;;20.50;;
64598;SDS011;51008;51.504;11.548;2022-12-18T22:49:30;47.53;;;20.27;;
64598;SDS011;51008;51.504;11.548;2022-12-18T22:54:32;42.53;;;19.10;;
64598;SDS011;51008;51.504;11.548;2022-12-18T22:59:33;40.00;;;17.40;;
64598;SDS011;51008;51.504;11.548;2022-12-18T23:04:34;36.77;;;17.47;;
64598;SDS011;51008;51.504;11.548;2022-12-18T23:09:35;39.80;;;18.77;;
64598;SDS011;51008;51.504;11.548;2022-12-18T23:14:36;37.50;;;17.20;;
64598;SDS011;51008;51.504;11.548;2022-12-18T23:19:37;44.83;;;17.13;;
64598;SDS011;51008;51.504;11.548;2022-12-18T23:24:38;36.13;;;16.70;;
64598;SDS011;51008;51.504;11.548;2022-12-18T23:29:39;38.20;;;16.37;;
64598;SDS011;51008;51.504;11.548;2022-12-18T23:34:40;34.70;;;16.23;;
64598;SDS011;51008;51.504;11.548;2022-12-18T23:39:41;29.30;;;13.40;;
64598;SDS011;51008;51.504;11.548;2022-12-18T23:44:42;30.33;;;15.20;;
64598;SDS011;51008;51.504;11.548;2022-12-18T23:49:43;34.57;;;14.97;;
64598;SDS011;51008;51.504;11.548;2022-12-18T23:54:44;42.00;;;15.03;;
64598;SDS011;51008;51.504;11.548;2022-12-18T23:59:45;32.67;;;14.70;;
